Time;durP1;ratioP1;P1;durP2;ratioP2;P2;SDS_P1;SDS_P2;PMS_P1;PMS_P2;Temp;Humidity;BMP_temperature;BMP_pressure;BME280_temperature;BME280_humidity;BME280_pressure;Samples;Min_cycle;Max_cycle;Signal;HPM_P1;HPM_P2
2021/06/30 00:01:45;;;;;;;2.75;1.38;;;;;;;19.22;64.03;92371.53;2053898;69;20164;-77
2021/06/30 00:04:11;;;;;;;2.97;1.50;;;;;;;19.00;65.49;92358.19;2054355;69;20158;-77
2021/06/30 00:06:37;;;;;;;3.85;1.73;;;;;;;19.07;64.59;92361.91;2054493;69;20150;-77
2021/06/30 00:09:03;;;;;;;3.08;1.52;;;;;;;19.23;62.56;92364.41;2054490;69;20232;-77
2021/06/30 00:11:29;;;;;;;2.05;1.33;;;;;;;19.21;61.46;92358.69;2054408;69;20224;-75
2021/06/30 00:13:55;;;;;;;2.75;1.67;;;;;;;19.12;63.95;92359.88;2054664;69;20566;-77
2021/06/30 00:16:21;;;;;;;3.50;1.65;;;;;;;19.23;61.84;92365.13;2054508;69;20193;-77
2021/06/30 00:18:46;;;;;;;2.05;1.48;;;;;;;19.14;64.25;92365.63;2054807;69;20596;-76
2021/06/30 00:21:12;;;;;;;3.47;1.80;;;;;;;19.00;64.31;92361.03;2054957;69;20169;-76
2021/06/30 00:23:38;;;;;;;4.45;1.63;;;;;;;19.01;64.41;92359.66;2054961;69;20694;-76
2021/06/30 00:26:03;;;;;;;2.72;1.52;;;;;;;19.07;63.34;92358.34;2054875;69;20144;-74
2021/06/30 00:28:30;;;;;;;1.52;1.42;;;;;;;18.99;64.51;92353.16;2054864;69;20681;-74
2021/06/30 00:30:56;;;;;;;2.80;1.40;;;;;;;18.94;65.59;92360.91;2055038;69;20240;-76
2021/06/30 00:33:22;;;;;;;5.88;1.50;;;;;;;18.93;66.18;92365.16;2054790;69;20174;-82
2021/06/30 00:35:47;;;;;;;3.53;1.63;;;;;;;19.08;63.39;92362.63;2054452;70;20598;-77
2021/06/30 00:38:13;;;;;;;1.42;1.30;;;;;;;19.07;63.78;92366.91;2054936;69;20272;-77
2021/06/30 00:40:39;;;;;;;2.03;1.58;;;;;;;18.84;65.43;92377.03;2054378;70;20248;-77
2021/06/30 00:43:05;;;;;;;2.65;1.50;;;;;;;18.90;65.40;92375.06;2055038;70;20169;-76
2021/06/30 00:45:30;;;;;;;6.90;2.03;;;;;;;19.00;63.45;92369.59;2054914;69;20153;-77
2021/06/30 00:47:56;;;;;;;2.47;1.65;;;;;;;18.83;65.39;92370.63;2054735;69;20237;-76
2021/06/30 00:50:22;;;;;;;3.22;1.75;;;;;;;18.75;65.75;92376.81;2054911;69;20578;-77
2021/06/30 00:52:49;;;;;;;2.53;2.00;;;;;;;18.67;66.28;92367.31;2054899;69;20208;-76
2021/06/30 00:55:15;;;;;;;2.83;1.75;;;;;;;18.87;63.46;92362.13;2054907;70;20142;-76
2021/06/30 00:57:42;;;;;;;3.72;1.85;;;;;;;18.81;64.92;92356.28;2054891;69;20240;-74
2021/06/30 01:00:08;;;;;;;2.78;1.90;;;;;;;18.84;64.93;92360.66;2054871;69;20585;-74
2021/06/30 01:02:34;;;;;;;3.22;2.00;;;;;;;18.83;64.49;92359.22;2054701;69;20130;-75
2021/06/30 01:05:00;;;;;;;2.30;1.65;;;;;;;18.92;64.20;92363.72;2055058;69;20286;-77
2021/06/30 01:07:25;;;;;;;1.75;1.60;;;;;;;18.69;66.96;92370.22;2055011;69;20150;-76
2021/06/30 01:09:52;;;;;;;3.47;1.58;;;;;;;18.93;62.97;92365.16;2054789;69;20157;-78
2021/06/30 01:12:18;;;;;;;5.72;1.60;;;;;;;18.78;65.24;92374.75;2054894;70;20669;-77
2021/06/30 01:14:43;;;;;;;1.65;1.55;;;;;;;18.86;62.81;92366.38;2054830;69;20229;-77
2021/06/30 01:17:09;;;;;;;1.83;1.58;;;;;;;18.71;63.93;92364.59;2054901;70;20149;-78
2021/06/30 01:19:37;;;;;;;3.40;1.70;;;;;;;18.67;62.94;92376.59;2054742;69;20182;-76
2021/06/30 01:22:05;;;;;;;2.95;1.73;;;;;;;18.71;64.35;92373.16;2054813;69;20146;-76
2021/06/30 01:24:31;;;;;;;3.20;2.35;;;;;;;18.73;63.35;92373.19;2054750;70;20193;-76
2021/06/30 01:26:56;;;;;;;5.85;1.75;;;;;;;18.64;63.52;92385.75;2054852;69;20241;-76
2021/06/30 01:29:22;;;;;;;2.75;1.80;;;;;;;18.73;64.23;92387.44;2053976;70;20153;-77
2021/06/30 01:31:49;;;;;;;1.92;1.73;;;;;;;18.48;66.02;92383.94;2054773;69;20180;-77
2021/06/30 01:34:15;;;;;;;4.43;1.80;;;;;;;18.60;64.53;92369.28;2054708;69;20209;-76
2021/06/30 01:36:53;;;;;;;3.97;1.95;;;;;;;19.02;61.97;92366.09;2054793;69;20260;-76
2021/06/30 01:39:21;;;;;;;3.72;2.13;;;;;;;18.42;63.62;92368.81;2054980;69;20233;-77
2021/06/30 01:41:47;;;;;;;3.22;2.13;;;;;;;18.32;66.00;92374.22;2054831;69;20153;-77
2021/06/30 01:44:13;;;;;;;3.15;2.08;;;;;;;18.54;64.76;92375.53;2054827;69;20143;-76
2021/06/30 01:46:40;;;;;;;2.97;1.85;;;;;;;18.43;64.60;92378.81;2054818;69;20193;-77
2021/06/30 01:49:06;;;;;;;3.78;1.77;;;;;;;18.53;65.43;92376.94;2054630;69;20134;-77
2021/06/30 01:51:33;;;;;;;3.53;1.73;;;;;;;18.55;63.61;92381.97;2054784;69;20145;-77
2021/06/30 01:54:01;;;;;;;2.20;1.95;;;;;;;18.45;66.70;92396.66;2054716;69;20146;-76
2021/06/30 01:56:28;;;;;;;1.92;1.60;;;;;;;18.48;66.58;92412.44;2054810;69;20150;-76
2021/06/30 01:59:02;;;;;;;2.30;1.70;;;;;;;18.57;65.67;92419.09;2054644;70;20220;-76
2021/06/30 02:01:28;;;;;;;2.20;2.00;;;;;;;18.40;65.22;92420.03;2054842;69;20225;-77
2021/06/30 02:03:57;;;;;;;2.10;1.90;;;;;;;18.53;64.00;92424.69;2054670;69;20134;-76
2021/06/30 02:06:24;;;;;;;1.70;1.60;;;;;;;18.45;64.87;92430.16;2054938;69;20150;-74
2021/06/30 02:08:56;;;;;;;2.92;1.60;;;;;;;18.35;64.52;92430.59;2054756;69;20141;-78
2021/06/30 02:11:23;;;;;;;1.90;1.63;;;;;;;18.51;63.01;92430.34;2054918;69;20311;-77
2021/06/30 02:13:48;;;;;;;2.70;1.17;;;;;;;18.27;64.33;92442.50;2054786;69;20252;-76
2021/06/30 02:16:14;;;;;;;2.17;1.40;;;;;;;18.13;65.12;92439.25;2054256;70;20502;-77
2021/06/30 02:18:40;;;;;;;4.22;1.88;;;;;;;18.02;66.56;92441.06;2054691;69;20170;-74
2021/06/30 02:21:06;;;;;;;4.55;1.77;;;;;;;18.03;65.47;92447.50;2054788;69;20212;-76
2021/06/30 02:23:32;;;;;;;4.43;1.42;;;;;;;18.23;64.40;92453.03;2054791;69;20219;-77
2021/06/30 02:25:58;;;;;;;3.17;1.40;;;;;;;18.11;65.40;92452.72;2054228;70;20312;-77
2021/06/30 02:28:24;;;;;;;2.25;1.35;;;;;;;18.31;65.33;92447.59;2054732;69;20134;-74
2021/06/30 02:30:49;;;;;;;2.88;1.60;;;;;;;18.16;65.58;92437.19;2054699;69;20146;-74
2021/06/30 02:33:15;;;;;;;2.22;1.50;;;;;;;18.32;64.52;92454.72;2054490;69;20154;-75
2021/06/30 02:35:41;;;;;;;2.47;1.40;;;;;;;18.17;65.46;92453.59;2054708;69;20194;-73
2021/06/30 02:38:08;;;;;;;3.78;1.20;;;;;;;18.29;64.27;92448.25;2054707;69;20138;-77
2021/06/30 02:40:34;;;;;;;3.58;1.10;;;;;;;18.16;64.61;92457.84;2054649;69;20146;-73
2021/06/30 02:43:01;;;;;;;1.40;1.10;;;;;;;17.90;66.24;92457.06;2054690;69;20228;-75
2021/06/30 02:45:27;;;;;;;1.73;0.98;;;;;;;17.77;66.60;92453.84;2054671;69;20233;-74
2021/06/30 02:47:53;;;;;;;1.65;0.70;;;;;;;17.76;64.28;92463.78;2054527;69;20169;-76
2021/06/30 02:50:20;;;;;;;1.38;0.80;;;;;;;17.71;64.47;92479.28;2054767;69;20177;-72
2021/06/30 02:52:49;;;;;;;1.35;0.80;;;;;;;17.73;65.17;92492.84;2054759;70;20560;-72
2021/06/30 02:55:16;;;;;;;1.42;0.88;;;;;;;17.36;65.77;92493.78;2054684;69;20602;-74
2021/06/30 02:57:46;;;;;;;1.23;0.95;;;;;;;17.72;64.65;92509.19;2054609;69;20541;-73
2021/06/30 03:00:24;;;;;;;1.00;0.90;;;;;;;17.45;65.41;92518.28;2054627;70;20156;-73
2021/06/30 03:02:50;;;;;;;2.65;0.77;;;;;;;17.24;67.27;92525.44;2054601;69;20142;-73
2021/06/30 03:05:16;;;;;;;2.08;1.00;;;;;;;17.53;65.22;92530.66;2054584;69;20145;-72
2021/06/30 03:07:42;;;;;;;3.08;1.13;;;;;;;17.45;66.01;92530.38;2054552;69;20153;-71
2021/06/30 03:10:10;;;;;;;1.40;1.08;;;;;;;17.27;66.92;92547.59;2054546;69;20173;-71
2021/06/30 03:12:36;;;;;;;1.60;0.80;;;;;;;17.63;63.81;92544.47;2054596;69;20138;-75
2021/06/30 03:15:07;;;;;;;0.40;0.40;;;;;;;17.50;62.62;92548.31;2054561;69;20145;-76
2021/06/30 03:17:34;;;;;;;2.47;0.80;;;;;;;17.50;63.37;92546.22;2054519;69;20242;-73
2021/06/30 03:20:02;;;;;;;1.75;0.70;;;;;;;17.44;63.94;92556.66;2054717;69;20138;-73
2021/06/30 03:22:28;;;;;;;2.55;0.60;;;;;;;17.18;65.28;92551.56;2054542;69;20146;-71
2021/06/30 03:24:54;;;;;;;4.45;0.80;;;;;;;16.98;66.16;92545.16;2054563;69;20144;-71
2021/06/30 03:27:19;;;;;;;2.30;0.80;;;;;;;16.89;66.71;92534.91;2054569;70;20264;-71
2021/06/30 03:29:46;;;;;;;3.53;0.88;;;;;;;16.86;67.65;92533.34;2054622;69;20171;-73
2021/06/30 03:32:11;;;;;;;3.03;0.57;;;;;;;17.04;65.70;92536.84;2054559;69;20237;-76
2021/06/30 03:34:37;;;;;;;5.28;0.50;;;;;;;16.69;66.94;92534.91;2054378;69;20150;-72
2021/06/30 03:37:03;;;;;;;1.40;0.60;;;;;;;16.63;66.25;92531.81;2054669;69;20154;-71
2021/06/30 03:39:29;;;;;;;1.55;0.50;;;;;;;17.17;64.11;92526.59;2054535;69;20161;-73
2021/06/30 03:41:54;;;;;;;2.20;0.50;;;;;;;16.58;66.94;92525.25;2054498;69;20178;-72
2021/06/30 03:44:20;;;;;;;1.38;0.60;;;;;;;16.56;66.91;92527.31;2053923;70;20233;-76
2021/06/30 03:46:46;;;;;;;6.22;0.60;;;;;;;16.46;67.64;92533.38;2054621;69;20613;-72
2021/06/30 03:49:11;;;;;;;1.40;0.57;;;;;;;16.23;69.50;92528.97;2054366;69;20141;-76
2021/06/30 03:51:37;;;;;;;1.42;0.52;;;;;;;16.50;67.04;92520.03;2054581;69;20213;-72
2021/06/30 03:54:05;;;;;;;0.43;0.43;;;;;;;16.68;66.58;92516.38;2054537;69;20150;-73
2021/06/30 03:56:31;;;;;;;0.68;0.50;;;;;;;16.82;64.78;92507.66;2054534;69;20257;-72
2021/06/30 03:58:58;;;;;;;0.43;0.43;;;;;;;16.58;66.36;92513.88;2054545;69;20146;-76
2021/06/30 04:01:24;;;;;;;1.85;0.50;;;;;;;16.42;67.95;92513.31;2054652;69;20165;-73
2021/06/30 04:03:59;;;;;;;1.58;0.43;;;;;;;16.46;66.18;92510.63;2054507;69;20154;-73
2021/06/30 04:06:25;;;;;;;3.92;0.70;;;;;;;16.28;68.49;92510.69;2054514;69;20150;-73
2021/06/30 04:08:51;;;;;;;3.47;0.60;;;;;;;16.19;69.26;92511.78;2054466;69;20176;-73
2021/06/30 04:11:17;;;;;;;0.35;0.30;;;;;;;16.22;68.34;92508.38;2054858;69;20582;-75
2021/06/30 04:13:43;;;;;;;0.38;0.32;;;;;;;16.20;68.25;92507.56;2054519;69;20610;-75
2021/06/30 04:16:09;;;;;;;3.95;0.47;;;;;;;16.23;68.54;92503.41;2054610;69;20146;-72
2021/06/30 04:18:35;;;;;;;0.52;0.20;;;;;;;16.29;67.94;92509.31;2053841;70;20530;-74
2021/06/30 04:21:01;;;;;;;0.20;0.20;;;;;;;16.50;66.42;92510.78;2054600;69;20609;-74
2021/06/30 04:23:27;;;;;;;0.70;0.30;;;;;;;16.32;67.36;92513.69;2054590;69;20149;-77
2021/06/30 04:25:52;;;;;;;2.95;0.38;;;;;;;16.29;67.85;92517.81;2054468;69;20153;-73
2021/06/30 04:28:18;;;;;;;0.25;0.20;;;;;;;16.48;66.92;92516.38;2054491;69;20161;-73
2021/06/30 04:30:44;;;;;;;1.02;0.30;;;;;;;16.66;65.07;92514.19;2054407;69;20514;-72
2021/06/30 04:33:10;;;;;;;0.68;0.20;;;;;;;16.54;67.48;92525.13;2054194;69;20146;-73
2021/06/30 04:35:36;;;;;;;0.50;0.30;;;;;;;16.34;68.28;92532.91;2054352;69;20542;-73
2021/06/30 04:38:02;;;;;;;0.52;0.47;;;;;;;16.68;65.47;92528.47;2054356;70;20166;-74
2021/06/30 04:40:28;;;;;;;0.60;0.40;;;;;;;16.64;67.06;92524.75;2054357;69;20142;-74
2021/06/30 04:42:53;;;;;;;0.60;0.50;;;;;;;16.89;64.30;92529.94;2054339;69;20134;-72
2021/06/30 04:45:19;;;;;;;1.85;0.70;;;;;;;16.62;69.06;92522.56;2053841;70;20146;-75
2021/06/30 04:47:45;;;;;;;0.70;0.70;;;;;;;16.40;70.51;92525.34;2054312;69;20208;-72
2021/06/30 04:50:11;;;;;;;1.48;0.70;;;;;;;16.61;67.44;92518.28;2054486;69;20188;-75
2021/06/30 04:52:37;;;;;;;1.00;0.80;;;;;;;16.59;68.55;92523.91;2054343;69;20185;-73
2021/06/30 04:55:04;;;;;;;2.47;0.75;;;;;;;16.70;66.95;92522.84;2054349;69;20281;-73
2021/06/30 04:57:29;;;;;;;4.22;0.77;;;;;;;16.75;66.37;92527.31;2054347;69;20146;-73
2021/06/30 04:59:55;;;;;;;1.25;0.73;;;;;;;16.35;67.89;92529.41;2054365;69;20153;-74
2021/06/30 05:02:20;;;;;;;1.20;0.90;;;;;;;16.63;65.63;92524.03;2054330;69;20224;-75
2021/06/30 05:04:46;;;;;;;2.80;0.98;;;;;;;16.70;68.05;92527.81;2054458;69;20674;-74
2021/06/30 05:07:11;;;;;;;1.00;0.90;;;;;;;16.61;68.51;92529.63;2054897;69;20145;-72
2021/06/30 05:09:37;;;;;;;3.38;1.00;;;;;;;16.78;67.58;92530.97;2054875;69;20188;-76
2021/06/30 05:12:03;;;;;;;1.33;0.75;;;;;;;16.79;66.99;92528.88;2054860;70;20301;-72
2021/06/30 05:14:29;;;;;;;1.80;0.70;;;;;;;16.88;67.25;92530.59;2055008;69;20145;-74
2021/06/30 05:16:55;;;;;;;1.08;0.77;;;;;;;16.86;67.23;92528.44;2054850;69;20139;-76
2021/06/30 05:19:21;;;;;;;1.27;0.70;;;;;;;16.98;66.67;92525.97;2054744;70;20204;-74
2021/06/30 05:21:46;;;;;;;1.42;0.90;;;;;;;16.99;67.50;92526.72;2054975;69;20578;-73
2021/06/30 05:24:12;;;;;;;2.17;0.90;;;;;;;16.92;67.02;92527.91;2054444;69;20208;-73
2021/06/30 05:26:38;;;;;;;2.78;1.00;;;;;;;17.09;66.07;92535.59;2054995;69;20141;-75
2021/06/30 05:29:04;;;;;;;0.85;0.70;;;;;;;17.22;65.28;92528.91;2054794;69;20220;-72
2021/06/30 05:31:29;;;;;;;2.33;1.10;;;;;;;17.22;66.71;92531.75;2054273;70;20164;-74
2021/06/30 05:33:55;;;;;;;1.20;1.00;;;;;;;17.30;66.73;92524.91;2054643;69;20154;-73
2021/06/30 05:36:20;;;;;;;3.97;1.10;;;;;;;17.20;67.59;92531.72;2054820;69;20157;-74
2021/06/30 05:38:46;;;;;;;2.33;1.20;;;;;;;16.94;68.41;92531.53;2054276;70;20534;-71
2021/06/30 05:41:12;;;;;;;1.13;0.80;;;;;;;16.50;68.42;92527.81;2054769;69;20158;-73
2021/06/30 05:43:38;;;;;;;2.05;1.10;;;;;;;16.68;66.56;92531.31;2054271;70;20621;-73
2021/06/30 05:46:04;;;;;;;4.05;0.90;;;;;;;16.49;68.62;92529.19;2054748;69;20142;-72
2021/06/30 05:48:30;;;;;;;1.55;0.90;;;;;;;16.71;67.58;92529.25;2054687;69;20594;-73
2021/06/30 05:50:56;;;;;;;1.80;1.10;;;;;;;16.17;69.15;92518.13;2054953;69;20153;-75
2021/06/30 05:53:22;;;;;;;2.33;1.10;;;;;;;16.23;69.75;92521.19;2054219;70;20209;-74
2021/06/30 05:55:47;;;;;;;3.40;1.10;;;;;;;16.44;67.62;92521.91;2054767;70;20572;-76
2021/06/30 05:58:13;;;;;;;1.20;0.90;;;;;;;16.76;66.53;92525.22;2054849;69;20145;-73
2021/06/30 06:00:39;;;;;;;0.80;0.80;;;;;;;17.01;65.70;92521.09;2054735;69;20161;-75
2021/06/30 06:03:04;;;;;;;2.72;0.90;;;;;;;16.32;68.64;92515.81;2054642;69;20286;-76
2021/06/30 06:05:30;;;;;;;2.35;1.00;;;;;;;16.49;68.82;92510.06;2054933;70;20530;-74
2021/06/30 06:07:56;;;;;;;2.15;1.10;;;;;;;16.57;68.89;92508.88;2054679;69;20142;-72
2021/06/30 06:10:21;;;;;;;6.20;1.30;;;;;;;16.72;66.94;92510.84;2054917;69;20272;-72
2021/06/30 06:12:47;;;;;;;1.25;1.15;;;;;;;16.38;68.42;92519.59;2054738;69;20677;-73
2021/06/30 06:15:13;;;;;;;3.30;1.20;;;;;;;16.59;67.36;92512.53;2054633;69;20138;-74
2021/06/30 06:17:38;;;;;;;3.85;1.20;;;;;;;16.53;67.93;92503.78;2054592;70;20134;-75
2021/06/30 06:20:05;;;;;;;2.65;1.00;;;;;;;16.59;67.66;92500.44;2054102;70;20146;-73
2021/06/30 06:22:31;;;;;;;3.05;0.90;;;;;;;15.94;69.05;92501.59;2054706;69;20153;-76
2021/06/30 06:24:57;;;;;;;1.83;1.10;;;;;;;15.49;70.52;92503.44;2054715;70;20142;-75
2021/06/30 06:27:23;;;;;;;1.45;1.10;;;;;;;16.15;68.27;92503.09;2054726;69;20150;-74
2021/06/30 06:29:50;;;;;;;3.00;1.00;;;;;;;16.43;66.75;92506.25;2054161;70;20146;-77
2021/06/30 06:32:16;;;;;;;0.98;0.95;;;;;;;16.59;66.39;92506.13;2054615;69;20157;-74
2021/06/30 06:34:42;;;;;;;1.52;0.98;;;;;;;16.96;65.45;92499.63;2054534;69;20537;-73
2021/06/30 06:37:11;;;;;;;1.10;0.90;;;;;;;17.08;63.97;92502.13;2054122;70;20181;-74
2021/06/30 06:39:37;;;;;;;1.25;0.88;;;;;;;17.10;65.41;92508.63;2054234;70;20150;-74
2021/06/30 06:42:05;;;;;;;1.05;0.90;;;;;;;17.14;66.53;92500.22;2054844;69;20158;-74
2021/06/30 06:44:31;;;;;;;2.38;0.90;;;;;;;16.97;68.30;92496.09;2054689;69;20150;-76
2021/06/30 06:46:56;;;;;;;1.92;0.90;;;;;;;17.18;67.61;92502.44;2054706;69;20181;-76
2021/06/30 06:49:22;;;;;;;1.30;0.82;;;;;;;17.29;64.63;92495.72;2054520;69;20495;-75
2021/06/30 06:51:47;;;;;;;1.50;1.00;;;;;;;17.12;67.95;92502.25;2054676;69;20146;-75
2021/06/30 06:54:13;;;;;;;3.28;0.90;;;;;;;17.14;67.19;92494.53;2054667;69;20145;-76
2021/06/30 06:56:39;;;;;;;2.58;0.80;;;;;;;17.21;67.21;92501.88;2054681;69;20685;-76
2021/06/30 06:59:04;;;;;;;1.40;0.85;;;;;;;17.30;68.29;92502.88;2054622;69;20204;-75
2021/06/30 07:01:30;;;;;;;2.05;0.88;;;;;;;17.49;63.92;92509.88;2054647;69;20633;-76
2021/06/30 07:03:55;;;;;;;0.85;0.80;;;;;;;17.41;65.36;92509.59;2054594;69;20131;-72
2021/06/30 07:06:21;;;;;;;2.83;1.00;;;;;;;17.21;65.89;92513.25;2054780;69;20166;-74
2021/06/30 07:08:46;;;;;;;1.42;0.90;;;;;;;17.19;68.24;92516.03;2054612;69;20197;-77
2021/06/30 07:11:12;;;;;;;0.90;0.90;;;;;;;17.28;67.92;92502.81;2054755;70;20210;-78
2021/06/30 07:13:39;;;;;;;1.10;0.90;;;;;;;17.22;67.96;92509.00;2054788;69;20141;-74
2021/06/30 07:16:05;;;;;;;1.17;0.90;;;;;;;17.38;67.91;92505.25;2054070;70;20229;-75
2021/06/30 07:18:35;;;;;;;0.80;0.75;;;;;;;17.53;67.37;92507.88;2054520;69;20166;-73
2021/06/30 07:21:02;;;;;;;1.15;1.00;;;;;;;17.46;65.55;92508.38;2054593;69;20230;-77
2021/06/30 07:23:29;;;;;;;3.47;0.88;;;;;;;17.59;65.96;92507.34;2054623;69;20513;-75
2021/06/30 07:25:55;;;;;;;0.95;0.90;;;;;;;17.69;66.96;92509.81;2054608;70;20154;-77
2021/06/30 07:28:21;;;;;;;1.85;0.93;;;;;;;17.63;66.21;92501.06;2054344;69;20518;-77
2021/06/30 07:30:47;;;;;;;1.77;0.80;;;;;;;17.77;67.28;92510.78;2054674;70;20161;-74
2021/06/30 07:33:13;;;;;;;1.02;0.90;;;;;;;17.83;67.17;92506.69;2054359;69;20602;-76
2021/06/30 07:35:38;;;;;;;1.73;1.00;;;;;;;17.72;65.89;92508.47;2054653;69;20157;-75
2021/06/30 07:38:05;;;;;;;1.42;0.80;;;;;;;17.83;65.16;92510.28;2054600;69;20126;-78
2021/06/30 07:40:32;;;;;;;1.23;0.95;;;;;;;17.87;63.83;92504.72;2054832;69;20243;-78
2021/06/30 07:42:58;;;;;;;1.33;0.80;;;;;;;18.03;63.49;92510.16;2054579;69;20145;-74
2021/06/30 07:45:24;;;;;;;1.00;0.95;;;;;;;18.03;62.56;92510.88;2054065;70;20161;-75
2021/06/30 07:47:50;;;;;;;1.27;1.17;;;;;;;18.02;62.64;92508.72;2054548;70;20181;-74
2021/06/30 07:50:16;;;;;;;2.92;0.85;;;;;;;18.07;63.54;92498.88;2054439;69;20165;-78
2021/06/30 07:52:44;;;;;;;1.05;0.70;;;;;;;18.26;63.72;92505.84;2054589;69;20144;-75
2021/06/30 07:55:10;;;;;;;2.38;0.90;;;;;;;18.10;64.21;92506.09;2054529;69;20543;-75
2021/06/30 07:57:36;;;;;;;1.98;1.00;;;;;;;18.23;61.80;92499.34;2054599;70;20665;-76
2021/06/30 08:00:03;;;;;;;1.67;1.42;;;;;;;17.81;61.97;92507.34;2054445;69;20165;-77
2021/06/30 08:02:38;;;;;;;2.42;1.10;;;;;;;17.24;64.08;92508.38;2054392;69;20495;-77
2021/06/30 08:05:05;;;;;;;1.23;1.00;;;;;;;17.18;63.83;92506.06;2054457;69;20683;-78
2021/06/30 08:07:30;;;;;;;3.92;1.30;;;;;;;16.88;65.02;92511.44;2054490;69;20529;-77
2021/06/30 08:09:56;;;;;;;4.32;1.20;;;;;;;17.62;63.18;92513.84;2053915;70;20595;-77
2021/06/30 08:12:22;;;;;;;3.90;1.40;;;;;;;17.81;62.87;92515.88;2054465;69;20153;-74
2021/06/30 08:14:48;;;;;;;3.67;1.20;;;;;;;17.93;60.86;92510.59;2054573;69;20150;-76
2021/06/30 08:17:14;;;;;;;6.68;1.33;;;;;;;17.83;62.60;92512.41;2054501;70;20607;-76
2021/06/30 08:19:39;;;;;;;1.58;1.00;;;;;;;18.10;60.34;92513.91;2054372;69;20222;-77
2021/06/30 08:22:10;;;;;;;1.63;1.02;;;;;;;18.18;61.89;92511.31;2054554;69;20154;-77
2021/06/30 08:24:40;;;;;;;2.90;1.15;;;;;;;18.09;63.27;92506.75;2054629;69;20161;-76
2021/06/30 08:27:07;;;;;;;4.95;1.20;;;;;;;18.40;58.89;92517.66;2054733;69;20165;-75
2021/06/30 08:29:32;;;;;;;3.67;1.17;;;;;;;18.12;59.61;92508.28;2054435;69;20242;-74
2021/06/30 08:31:58;;;;;;;1.80;0.88;;;;;;;17.09;62.99;92520.63;2054439;69;20151;-76
2021/06/30 08:34:26;;;;;;;1.02;0.90;;;;;;;16.69;64.87;92515.00;2054429;69;20621;-76
2021/06/30 08:36:55;;;;;;;2.40;0.98;;;;;;;17.05;64.73;92524.09;2054448;69;20537;-78
2021/06/30 08:39:21;;;;;;;2.47;0.88;;;;;;;16.62;65.76;92511.19;2054846;69;20177;-78
2021/06/30 08:41:48;;;;;;;0.93;0.82;;;;;;;17.17;63.37;92512.38;2055141;69;20138;-82
2021/06/30 08:44:14;;;;;;;1.33;0.88;;;;;;;17.31;62.77;92514.97;2054971;69;20237;-74
2021/06/30 08:46:40;;;;;;;2.75;1.05;;;;;;;17.45;61.64;92516.16;2054934;69;20122;-77
2021/06/30 08:49:06;;;;;;;1.85;0.70;;;;;;;17.80;60.10;92514.44;2054956;69;20530;-74
2021/06/30 08:51:33;;;;;;;5.05;3.05;;;;;;;17.71;60.93;92509.84;2054871;69;20162;-74
2021/06/30 08:54:01;;;;;;;1.90;1.60;;;;;;;17.80;59.69;92497.34;2054891;69;20614;-74
2021/06/30 08:56:33;;;;;;;2.17;1.30;;;;;;;18.19;58.72;92507.06;2055053;70;20249;-74
2021/06/30 08:58:59;;;;;;;4.38;1.00;;;;;;;18.02;63.57;92500.16;2055001;69;20150;-76
2021/06/30 09:01:27;;;;;;;0.80;0.70;;;;;;;18.23;61.28;92495.78;2054891;69;20209;-76
2021/06/30 09:03:55;;;;;;;2.13;0.80;;;;;;;18.43;61.59;92501.34;2054854;69;20156;-78
2021/06/30 09:06:22;;;;;;;1.08;0.80;;;;;;;18.46;60.69;92509.31;2054522;70;20229;-76
2021/06/30 09:08:47;;;;;;;1.38;0.90;;;;;;;18.61;60.46;92495.44;2054893;69;20142;-75
2021/06/30 09:11:14;;;;;;;2.55;0.70;;;;;;;18.59;60.18;92498.94;2054246;69;20844;-75
2021/06/30 09:13:42;;;;;;;1.75;1.00;;;;;;;18.68;58.58;92494.19;2053968;69;20887;-76
2021/06/30 09:16:08;;;;;;;0.82;0.65;;;;;;;18.57;58.46;92483.94;2047228;70;20150;-75
2021/06/30 09:18:39;;;;;;;2.72;0.80;;;;;;;18.71;57.87;92490.78;2047676;70;20149;-73
2021/06/30 09:21:17;;;;;;;1.95;0.80;;;;;;;18.71;57.08;92482.22;2047319;70;20158;-75
2021/06/30 09:24:08;;;;;;;1.10;0.60;;;;;;;18.88;58.61;92488.38;2047602;70;20217;-76
2021/06/30 09:26:52;;;;;;;2.75;0.50;;;;;;;19.04;57.26;92483.06;2048048;70;20597;-79
2021/06/30 09:29:20;;;;;;;0.68;0.57;;;;;;;18.25;59.37;92484.47;2047878;70;20146;-76
2021/06/30 09:31:48;;;;;;;2.13;0.60;;;;;;;18.99;59.84;92479.38;2047920;70;20609;-76
2021/06/30 09:34:28;;;;;;;1.90;0.60;;;;;;;19.24;56.99;92475.03;2047915;70;20250;-76
2021/06/30 09:37:01;;;;;;;0.45;0.30;;;;;;;19.32;56.30;92479.50;2048313;70;20157;-76
2021/06/30 09:39:29;;;;;;;2.15;0.60;;;;;;;19.29;56.63;92478.72;2048383;70;20601;-78
2021/06/30 09:42:02;;;;;;;0.82;0.60;;;;;;;19.47;55.75;92481.28;2048264;70;20214;-75
2021/06/30 09:44:28;;;;;;;;;;;;;;;18.83;57.34;92481.06;2048467;70;20225;-75
2021/06/30 09:46:55;;;;;;;1.65;0.90;;;;;;;18.82;59.79;92483.22;2048262;70;20429;-78
2021/06/30 09:49:21;;;;;;;1.67;0.75;;;;;;;19.11;57.54;92475.41;2047949;70;20134;-76
2021/06/30 09:52:12;;;;;;;1.85;0.88;;;;;;;18.19;58.73;92479.31;2048151;70;20222;-74
2021/06/30 09:54:41;;;;;;;2.67;0.85;;;;;;;18.29;59.25;92482.44;2048249;70;20660;-74
2021/06/30 09:57:10;;;;;;;1.80;0.90;;;;;;;18.03;60.71;92465.31;2048305;70;20598;-75
2021/06/30 09:59:39;;;;;;;3.60;1.00;;;;;;;18.15;60.31;92470.66;2048311;70;20147;-75
2021/06/30 10:02:06;;;;;;;3.08;0.95;;;;;;;18.19;59.37;92470.78;2048389;70;20155;-73
2021/06/30 10:04:33;;;;;;;0.90;0.80;;;;;;;18.65;58.37;92458.50;2048184;70;20158;-74
2021/06/30 10:07:04;;;;;;;1.90;0.90;;;;;;;18.29;59.42;92468.22;2048300;70;20245;-74
2021/06/30 10:09:30;;;;;;;2.00;0.75;;;;;;;18.20;59.33;92460.81;2048247;70;20241;-73
2021/06/30 10:12:21;;;;;;;2.35;0.80;;;;;;;17.94;60.27;92475.00;2048392;70;20680;-73
2021/06/30 10:14:46;;;;;;;2.15;0.80;;;;;;;17.90;60.52;92477.72;2048284;70;20693;-73
2021/06/30 10:17:14;;;;;;;1.08;0.70;;;;;;;18.21;59.08;92479.38;2048376;70;20327;-73
2021/06/30 10:19:42;;;;;;;1.38;0.80;;;;;;;17.53;61.85;92481.53;2048224;70;20614;-74
2021/06/30 10:22:10;;;;;;;0.70;0.70;;;;;;;17.98;60.43;92477.97;2048352;70;20153;-74
2021/06/30 10:24:37;;;;;;;1.88;0.80;;;;;;;18.06;59.99;92488.91;2048247;70;20147;-73
2021/06/30 10:27:04;;;;;;;3.30;0.82;;;;;;;18.08;60.00;92482.53;2048199;70;20139;-73
2021/06/30 10:29:36;;;;;;;0.57;0.40;;;;;;;17.93;61.64;92496.34;2048217;70;20150;-73
2021/06/30 10:32:07;;;;;;;0.93;0.22;;;;;;;18.00;60.25;92495.13;2048144;70;20174;-73
2021/06/30 10:34:45;;;;;;;3.33;0.50;;;;;;;17.72;60.76;92505.63;2048104;70;20139;-73
2021/06/30 10:37:31;;;;;;;1.70;0.50;;;;;;;17.83;61.67;92515.25;2048243;70;20143;-74
2021/06/30 10:40:10;;;;;;;1.60;0.60;;;;;;;17.70;62.61;92516.94;2048369;70;20154;-73
2021/06/30 10:42:43;;;;;;;3.05;0.50;;;;;;;17.68;62.60;92533.94;2048182;70;20146;-73
2021/06/30 10:45:20;;;;;;;1.15;0.60;;;;;;;17.93;62.33;92541.19;2048218;70;20234;-74
2021/06/30 10:47:55;;;;;;;0.75;0.50;;;;;;;17.68;63.15;92548.19;2048124;70;20162;-74
2021/06/30 10:50:38;;;;;;;0.50;0.50;;;;;;;17.82;63.73;92553.63;2048120;70;20592;-74
2021/06/30 10:53:04;;;;;;;0.60;0.45;;;;;;;17.95;62.93;92549.78;2048338;70;20306;-73
2021/06/30 10:55:33;;;;;;;0.32;0.30;;;;;;;17.71;64.79;92546.88;2048179;70;20685;-73
2021/06/30 10:58:11;;;;;;;1.55;0.50;;;;;;;17.74;62.37;92554.84;2048313;70;20146;-73
2021/06/30 11:01:04;;;;;;;2.95;0.75;;;;;;;17.60;64.44;92562.19;2048157;70;20258;-73
2021/06/30 11:03:42;;;;;;;7.67;0.80;;;;;;;17.60;64.79;92562.19;2048131;70;20701;-72
2021/06/30 11:06:14;;;;;;;1.38;0.50;;;;;;;17.76;63.24;92554.16;2048177;70;20143;-72
2021/06/30 11:09:05;;;;;;;1.98;0.40;;;;;;;17.73;61.96;92561.16;2048123;70;20182;-72
2021/06/30 11:11:34;;;;;;;0.73;0.32;;;;;;;17.73;63.11;92561.16;2043251;70;20202;-72
2021/06/30 11:14:13;;;;;;;1.00;0.50;;;;;;;17.62;63.95;92585.72;2048164;70;20243;-72
2021/06/30 11:16:43;;;;;;;1.25;0.52;;;;;;;17.62;63.01;92590.69;2048305;70;20467;-72
2021/06/30 11:19:15;;;;;;;1.80;0.50;;;;;;;17.58;63.16;92613.31;2048140;70;20179;-72
2021/06/30 11:21:48;;;;;;;1.23;0.50;;;;;;;17.71;62.26;92615.91;2048098;70;20154;-72
2021/06/30 11:24:33;;;;;;;1.80;0.50;;;;;;;17.60;64.22;92607.72;2048174;70;20146;-72
2021/06/30 11:27:18;;;;;;;2.35;0.70;;;;;;;17.40;64.30;92613.44;2048083;70;20144;-72
2021/06/30 11:29:54;;;;;;;1.80;0.50;;;;;;;17.24;64.67;92617.19;2048067;70;20263;-72
2021/06/30 11:32:47;;;;;;;1.73;0.57;;;;;;;17.41;64.57;92617.72;2048039;70;20150;-72
2021/06/30 11:35:12;;;;;;;2.13;0.40;;;;;;;17.39;64.41;92632.63;2047583;70;20254;-72
2021/06/30 11:37:40;;;;;;;3.60;0.50;;;;;;;17.16;64.99;92633.97;2047537;70;20263;-71